Terminal Aerodrome Forecast
Issued by NWS Newport/Morehead City, NC

Home | Current Version | Previous Version | Graphics & Text | Print | Product List | Glossary On
Versions: 1 2 3 4 5 6 7 8 9 10 11 12 13 14
000
FTUS42 KMHX 011139
TAFEWN
TAF
KEWN 011139Z 0112/0212 22006KT P6SM SCT015
      TEMPO 0112/0114 BKN015
     FM011400 25008KT P6SM SCT250
     FM012000 20009KT P6SM SCT050=

USA.gov is the U.S. government's official web portal to all federal, state and local government web resources and services.